Time;durP1;ratioP1;P1;durP2;ratioP2;P2;SDS_P1;SDS_P2;PMS_P1;PMS_P2;Temp;Humidity;BMP_temperature;BMP_pressure;BME280_temperature;BME280_humidity;BME280_pressure;Samples;Min_cycle;Max_cycle;Signal;HPM_P1;HPM_P2
2022/12/29 00:02:21;;;;;;;34.37;21.17;;;;;;;10.32;68.81;95534.88;5132423;27;20266;-48
2022/12/29 00:04:47;;;;;;;33.40;21.10;;;;;;;10.34;68.51;95546.63;5131918;27;20637;-45
2022/12/29 00:07:16;;;;;;;35.37;20.53;;;;;;;10.34;68.74;95538.97;5132580;27;20184;-47
2022/12/29 00:09:42;;;;;;;29.87;20.30;;;;;;;10.36;68.66;95544.75;5131958;27;20639;-47
2022/12/29 00:12:09;;;;;;;32.10;20.57;;;;;;;10.37;68.80;95545.59;5131897;27;20291;-47
2022/12/29 00:17:20;;;;;;;32.63;20.53;;;;;;;10.40;68.78;95546.16;5131483;27;20191;-47
2022/12/29 00:36:19;;;;;;;31.67;20.63;;;;;;;10.42;68.73;95557.09;5047668;28;20266;-46
2022/12/29 00:44:18;;;;;;;31.70;20.90;;;;;;;10.43;68.57;95570.69;5047880;28;20190;-46
2022/12/29 00:46:45;;;;;;;28.20;20.43;;;;;;;10.42;68.62;95569.06;5047726;28;20202;-47
2022/12/29 00:49:30;;;;;;;30.23;20.93;;;;;;;10.42;68.79;95574.19;5047679;28;20210;-47
2022/12/29 00:51:59;;;;;;;29.93;20.07;;;;;;;10.42;68.87;95569.06;5047589;28;20249;-46
2022/12/29 00:54:27;;;;;;;30.30;19.50;;;;;;;10.43;68.93;95570.69;5046501;28;20183;-46
2022/12/29 00:56:54;;;;;;;27.30;19.70;;;;;;;10.42;68.82;95567.31;5036221;28;20685;-47
2022/12/29 00:59:23;;;;;;;27.53;18.53;;;;;;;10.40;68.83;95569.16;5047933;28;20219;-48
2022/12/29 01:01:51;;;;;;;30.03;20.33;;;;;;;10.42;68.84;95569.88;5043072;28;20196;-48
2022/12/29 01:04:18;;;;;;;27.83;19.93;;;;;;;10.42;68.84;95567.31;5037893;28;20641;-46
2022/12/29 01:06:45;;;;;;;30.90;20.40;;;;;;;10.42;68.78;95564.78;5110469;28;20205;-47
2022/12/29 01:11:58;;;;;;;29.43;19.37;;;;;;;10.41;68.91;95563.16;5110343;28;20194;-47
2022/12/29 01:14:25;;;;;;;27.37;19.83;;;;;;;10.40;68.72;95563.25;5109925;28;20185;-47
2022/12/29 01:16:52;;;;;;;26.23;19.53;;;;;;;10.40;68.71;95556.38;5116355;27;20199;-46
2022/12/29 01:19:19;;;;;;;31.53;19.77;;;;;;;10.39;68.90;95559.88;5130418;27;20224;-47
2022/12/29 01:21:47;;;;;;;30.10;21.03;;;;;;;10.38;68.79;95552.34;5130168;27;20192;-46
2022/12/29 01:24:14;;;;;;;36.50;20.67;;;;;;;10.37;68.79;95556.63;5129975;27;20184;-47
2022/12/29 01:26:41;;;;;;;28.93;20.43;;;;;;;10.37;68.86;95554.06;5125254;27;20177;-48
2022/12/29 01:29:10;;;;;;;28.37;20.17;;;;;;;10.21;68.80;95531.34;5129519;27;20180;-48
2022/12/29 01:31:37;;;;;;;31.30;20.73;;;;;;;10.35;68.98;95553.34;5135420;27;20627;-48
2022/12/29 01:34:04;;;;;;;31.93;19.73;;;;;;;10.35;68.80;95543.13;5151416;27;20211;-47
2022/12/29 01:36:31;;;;;;;29.83;19.43;;;;;;;10.36;68.72;95541.38;5150681;27;20191;-47
2022/12/29 01:38:58;;;;;;;27.50;20.83;;;;;;;10.21;68.92;95520.31;5146585;27;20934;-46
2022/12/29 01:41:24;;;;;;;28.90;19.53;;;;;;;10.34;68.71;95535.59;5130279;27;20188;-46
2022/12/29 01:43:53;;;;;;;28.13;18.53;;;;;;;10.34;68.89;95531.28;5130217;27;20188;-47
2022/12/29 01:46:27;;;;;;;29.50;19.33;;;;;;;10.33;68.84;95533.97;5129926;27;20176;-46
2022/12/29 01:49:00;;;;;;;26.20;18.53;;;;;;;10.30;68.79;95527.34;5130226;27;20253;-46
2022/12/29 01:51:31;;;;;;;28.50;20.47;;;;;;;10.30;68.99;95527.34;5129535;27;20193;-47
2022/12/29 01:54:01;;;;;;;29.17;19.73;;;;;;;10.28;68.97;95530.00;5129385;27;20233;-46
2022/12/29 01:56:28;;;;;;;28.53;19.53;;;;;;;10.27;68.77;95525.81;5129906;27;20207;-46
2022/12/29 01:59:01;;;;;;;25.60;18.67;;;;;;;10.26;69.01;95529.31;5129914;27;20231;-46
2022/12/29 02:01:30;;;;;;;25.83;19.13;;;;;;;10.26;69.03;95524.19;5129540;27;20176;-47
2022/12/29 02:03:57;;;;;;;29.20;20.50;;;;;;;10.25;68.96;95520.00;5129870;27;20199;-45
2022/12/29 02:06:28;;;;;;;25.57;17.33;;;;;;;10.25;69.16;95520.00;5129759;27;20744;-46
2022/12/29 02:08:57;;;;;;;27.73;19.00;;;;;;;10.27;69.12;95519.88;5129007;27;20188;-46
2022/12/29 02:11:27;;;;;;;26.90;18.47;;;;;;;10.26;68.94;95510.59;5130175;27;20282;-47
2022/12/29 02:13:54;;;;;;;23.40;17.07;;;;;;;10.25;68.80;95512.34;5130295;27;20186;-47
2022/12/29 02:16:50;;;;;;;24.60;17.20;;;;;;;10.28;68.80;95511.31;5130022;27;20196;-47
2022/12/29 02:19:50;;;;;;;26.20;16.77;;;;;;;10.27;68.71;95513.03;5130082;27;20203;-46
2022/12/29 02:22:23;;;;;;;27.73;17.50;;;;;;;10.26;68.91;95510.59;5129334;27;20196;-46
2022/12/29 02:25:14;;;;;;;23.93;17.83;;;;;;;10.26;68.88;95513.16;5129639;27;20189;-45
2022/12/29 02:27:56;;;;;;;25.20;17.60;;;;;;;10.24;68.79;95510.72;5129909;27;20184;-46
2022/12/29 02:30:43;;;;;;;25.90;16.97;;;;;;;10.23;68.88;95509.06;5129209;27;20188;-47
2022/12/29 02:33:22;;;;;;;24.07;17.43;;;;;;;10.22;68.90;95511.72;5140959;27;20252;-47
2022/12/29 02:35:55;;;;;;;26.57;17.20;;;;;;;10.21;68.95;95505.78;5129332;27;20634;-46
2022/12/29 02:38:32;;;;;;;25.47;16.47;;;;;;;10.23;68.95;95515.91;5128393;28;20714;-46
2022/12/29 02:41:06;;;;;;;22.07;16.97;;;;;;;10.21;69.04;95515.22;5129612;28;20635;-47
2022/12/29 02:43:40;;;;;;;22.67;16.60;;;;;;;10.21;69.10;95518.56;5129403;28;20195;-48
2022/12/29 02:46:18;;;;;;;25.23;16.73;;;;;;;10.22;68.71;95519.38;5128868;28;20192;-48
2022/12/29 02:48:53;;;;;;;25.00;16.10;;;;;;;10.21;68.95;95521.13;5129223;28;20196;-47
2022/12/29 02:51:24;;;;;;;25.20;17.37;;;;;;;10.22;69.42;95515.09;5128988;28;20613;-47
2022/12/29 02:56:37;;;;;;;24.13;16.57;;;;;;;10.22;68.72;95511.72;5120632;28;20506;-46
2022/12/29 02:59:04;;;;;;;22.37;15.97;;;;;;;10.23;69.12;95509.06;5129136;28;20208;-47
2022/12/29 03:02:16;;;;;;;25.70;16.20;;;;;;;10.24;68.85;95507.31;5129192;28;20563;-48
2022/12/29 03:04:41;;;;;;;23.97;16.93;;;;;;;10.25;68.73;95498.75;5129087;28;20188;-46
2022/12/29 03:07:16;;;;;;;24.17;15.47;;;;;;;10.25;68.92;95494.44;5128853;28;20199;-47
2022/12/29 03:09:50;;;;;;;23.57;16.37;;;;;;;10.23;68.63;95501.41;5129196;28;20177;-46
2022/12/29 03:18:05;;;;;;;26.17;16.83;;;;;;;10.25;69.03;95493.63;5027818;28;20258;-46
2022/12/29 03:20:39;;;;;;;18.80;14.90;;;;;;;10.24;68.83;95484.31;5038182;28;20206;-47
2022/12/29 03:23:07;;;;;;;23.40;16.03;;;;;;;10.22;68.97;95484.41;5049253;28;20191;-47
2022/12/29 03:25:38;;;;;;;20.93;16.00;;;;;;;10.22;69.04;95486.97;5046690;28;20195;-47
2022/12/29 03:28:10;;;;;;;21.83;15.17;;;;;;;10.17;69.01;95489.06;5039174;28;20233;-48
2022/12/29 03:30:38;;;;;;;23.20;15.93;;;;;;;10.16;69.05;95486.63;5049147;28;20187;-48
2022/12/29 03:33:11;;;;;;;22.40;15.67;;;;;;;10.11;69.18;95497.19;5066255;28;20206;-46
2022/12/29 03:35:42;;;;;;;23.03;15.90;;;;;;;10.07;69.42;95498.34;5042724;28;20555;-48
2022/12/29 03:38:13;;;;;;;24.73;16.73;;;;;;;10.03;69.19;95500.31;5031468;28;20192;-47
2022/12/29 03:40:43;;;;;;;24.03;16.07;;;;;;;9.79;69.39;95467.19;5049285;28;20231;-47
2022/12/29 03:43:11;;;;;;;21.93;15.80;;;;;;;9.94;69.37;95490.78;5048755;28;20202;-47
2022/12/29 03:45:39;;;;;;;21.57;15.43;;;;;;;9.90;69.41;95496.25;5071183;28;20189;-47
2022/12/29 03:48:07;;;;;;;26.13;16.37;;;;;;;9.86;69.71;95493.09;5118672;27;20188;-47
2022/12/29 03:50:34;;;;;;;23.40;16.10;;;;;;;9.82;69.54;95499.34;5132468;27;20203;-47
2022/12/29 03:53:01;;;;;;;24.73;16.90;;;;;;;9.72;69.77;95490.75;5132193;27;20196;-48
2022/12/29 03:55:28;;;;;;;23.30;16.23;;;;;;;9.70;69.71;95500.25;5132313;27;20188;-48
2022/12/29 03:57:54;;;;;;;22.17;15.90;;;;;;;9.69;69.72;95504.56;5132136;27;20565;-47
2022/12/29 04:00:21;;;;;;;23.00;16.77;;;;;;;9.67;69.70;95510.69;5130837;27;20311;-46
2022/12/29 04:02:48;;;;;;;22.23;15.67;;;;;;;9.61;69.86;95511.16;5132163;27;20189;-47
2022/12/29 04:05:16;;;;;;;22.97;16.17;;;;;;;9.61;69.69;95517.06;5131856;27;20180;-46
2022/12/29 04:07:43;;;;;;;27.27;16.87;;;;;;;9.53;69.90;95512.50;5132180;27;20276;-50
2022/12/29 04:10:10;;;;;;;21.60;16.00;;;;;;;9.53;70.00;95520.16;5131667;27;20187;-47
2022/12/29 04:12:37;;;;;;;23.90;15.27;;;;;;;9.49;70.02;95510.28;5133415;27;20656;-45
2022/12/29 04:15:04;;;;;;;22.67;15.80;;;;;;;9.46;70.07;95508.78;5132202;27;20594;-48
2022/12/29 04:17:31;;;;;;;25.40;16.67;;;;;;;9.45;70.29;95509.69;5132165;27;20177;-46
2022/12/29 04:20:59;;;;;;;22.77;16.43;;;;;;;9.42;70.19;95514.22;5131595;27;20220;-46
2022/12/29 04:22:46;;;;;;;21.27;15.30;;;;;;;9.39;70.15;95512.69;5131530;27;20205;-48
2022/12/29 04:25:13;;;;;;;21.07;16.10;;;;;;;9.35;70.23;95510.47;5136665;27;20572;-46
2022/12/29 04:27:40;;;;;;;25.80;16.93;;;;;;;9.33;70.03;95515.69;5131703;27;20639;-47
2022/12/29 04:30:08;;;;;;;22.30;16.23;;;;;;;9.32;70.47;95515.78;5131082;27;20664;-48
2022/12/29 04:32:34;;;;;;;22.93;15.77;;;;;;;9.28;70.18;95522.84;5127655;27;20192;-47
2022/12/29 04:35:01;;;;;;;23.80;15.10;;;;;;;9.24;70.47;95521.44;5135346;27;20188;-48
2022/12/29 04:37:28;;;;;;;21.93;16.90;;;;;;;9.22;70.56;95528.41;5135107;27;20199;-45
2022/12/29 04:39:56;;;;;;;22.17;16.30;;;;;;;9.19;70.54;95531.97;5131809;27;20227;-46
2022/12/29 04:42:23;;;;;;;23.07;16.07;;;;;;;9.17;70.61;95531.28;5131352;27;20188;-47
2022/12/29 04:44:50;;;;;;;24.10;15.73;;;;;;;9.14;70.49;95541.69;5131545;27;20195;-47
2022/12/29 04:47:16;;;;;;;24.77;17.07;;;;;;;9.11;70.58;95530.88;5130998;27;20655;-48
2022/12/29 04:49:43;;;;;;;24.30;16.37;;;;;;;9.11;70.70;95535.97;5131661;27;20199;-46
2022/12/29 04:52:10;;;;;;;25.27;16.53;;;;;;;9.09;70.54;95543.75;5129707;27;20195;-47
2022/12/29 04:54:37;;;;;;;21.53;15.87;;;;;;;9.09;70.76;95548.06;5131943;27;20626;-48
2022/12/29 04:57:05;;;;;;;23.67;16.33;;;;;;;8.59;70.52;95474.13;5130666;27;20188;-46
2022/12/29 04:59:32;;;;;;;22.60;15.90;;;;;;;9.03;70.75;95550.13;5131117;27;20212;-47
2022/12/29 05:01:58;;;;;;;23.87;16.13;;;;;;;9.05;70.55;95550.00;5130767;27;20179;-46
2022/12/29 05:04:25;;;;;;;20.73;15.83;;;;;;;8.98;70.93;95541.13;5131536;27;20176;-46
2022/12/29 05:06:52;;;;;;;20.47;14.80;;;;;;;9.04;70.77;95544.09;5130695;27;20199;-45
2022/12/29 05:09:19;;;;;;;26.87;16.63;;;;;;;9.05;70.65;95550.00;5130918;27;20189;-46
2022/12/29 05:11:46;;;;;;;20.57;16.00;;;;;;;8.84;70.71;95510.69;5130652;27;20225;-47
2022/12/29 05:14:14;;;;;;;25.23;16.17;;;;;;;9.09;70.64;95556.50;5130747;27;20188;-46
2022/12/29 05:16:41;;;;;;;23.47;16.80;;;;;;;9.10;70.70;95559.88;5131196;27;20222;-46
2022/12/29 05:19:07;;;;;;;23.03;15.83;;;;;;;9.11;70.62;95554.69;5132005;27;20226;-47
2022/12/29 05:21:34;;;;;;;26.17;16.40;;;;;;;9.13;70.68;95557.94;5119467;27;20541;-48
2022/12/29 05:24:01;;;;;;;20.87;15.63;;;;;;;9.16;70.73;95556.91;5121752;27;20275;-46
2022/12/29 05:26:28;;;;;;;21.60;15.87;;;;;;;9.12;70.43;95548.66;5131191;27;20622;-46
2022/12/29 05:28:54;;;;;;;23.80;16.33;;;;;;;9.21;70.48;95552.31;5130804;27;20180;-46
2022/12/29 05:31:22;;;;;;;21.57;16.20;;;;;;;9.23;70.51;95541.03;5133612;27;20232;-47
2022/12/29 05:33:49;;;;;;;25.07;17.20;;;;;;;9.26;70.25;95550.22;5145046;27;20188;-47
2022/12/29 05:36:16;;;;;;;23.20;16.17;;;;;;;9.28;70.29;95548.38;5130250;27;20197;-47
2022/12/29 05:38:43;;;;;;;23.43;16.20;;;;;;;9.30;70.35;95546.53;5129686;27;20189;-48
2022/12/29 05:41:10;;;;;;;22.33;15.07;;;;;;;9.33;70.35;95553.19;5130049;27;20211;-48
2022/12/29 05:43:37;;;;;;;25.50;17.23;;;;;;;9.36;70.31;95550.38;5129855;27;20184;-47
2022/12/29 05:46:04;;;;;;;22.50;16.20;;;;;;;9.37;70.40;95552.84;5130234;27;20209;-48
2022/12/29 05:48:32;;;;;;;25.47;16.97;;;;;;;9.39;70.24;95556.09;5130372;27;20196;-46
2022/12/29 05:50:59;;;;;;;21.10;16.30;;;;;;;9.42;70.18;95555.06;5129714;27;20181;-51
2022/12/29 05:53:26;;;;;;;20.00;15.50;;;;;;;9.44;70.16;95559.13;5129837;27;20207;-46
2022/12/29 05:55:52;;;;;;;23.70;17.37;;;;;;;9.47;70.11;95558.91;5129317;27;20660;-48
2022/12/29 05:58:19;;;;;;;21.63;15.70;;;;;;;9.48;69.87;95562.28;5129229;27;20295;-47
2022/12/29 06:00:46;;;;;;;23.80;16.80;;;;;;;9.50;70.16;95566.38;5129675;27;20719;-46
2022/12/29 06:03:13;;;;;;;22.17;17.00;;;;;;;9.45;70.05;95550.53;5130083;27;20208;-47
2022/12/29 06:05:41;;;;;;;20.43;15.77;;;;;;;9.57;69.92;95563.38;5129202;27;20192;-48
2022/12/29 06:08:08;;;;;;;23.80;16.10;;;;;;;9.59;69.77;95570.00;5129463;27;20671;-45
2022/12/29 06:10:34;;;;;;;20.53;16.03;;;;;;;9.61;69.87;95565.59;5129570;27;20525;-45
2022/12/29 06:13:03;;;;;;;22.97;16.77;;;;;;;9.65;69.82;95568.75;5129086;27;20188;-46
2022/12/29 06:15:30;;;;;;;22.33;15.40;;;;;;;9.68;69.78;95576.19;5129803;27;20581;-45
2022/12/29 06:17:57;;;;;;;20.17;16.37;;;;;;;9.72;69.70;95577.59;5129349;27;20193;-45
2022/12/29 06:20:23;;;;;;;21.33;15.33;;;;;;;9.77;69.74;95578.06;5129124;27;20200;-47
2022/12/29 06:22:52;;;;;;;22.57;16.10;;;;;;;9.80;69.45;95571.00;5129432;27;20268;-45
2022/12/29 06:25:19;;;;;;;25.90;16.83;;;;;;;9.85;69.66;95573.22;5128901;27;20196;-46
2022/12/29 06:27:45;;;;;;;21.30;16.57;;;;;;;9.90;69.45;95572.91;5129000;27;20225;-46
2022/12/29 06:30:14;;;;;;;22.13;16.57;;;;;;;10.02;68.92;95574.56;5129663;27;20188;-45
2022/12/29 06:32:41;;;;;;;19.50;15.73;;;;;;;10.19;68.90;95563.06;5143910;27;20587;-47
2022/12/29 06:35:08;;;;;;;19.77;15.90;;;;;;;9.82;68.64;95491.69;5150435;27;20244;-46
2022/12/29 06:37:35;;;;;;;23.93;17.50;;;;;;;10.53;68.08;95574.19;5130876;27;20536;-45
2022/12/29 06:40:03;;;;;;;23.20;16.27;;;;;;;10.75;67.83;95581.88;5129627;28;20286;-44
2022/12/29 06:42:30;;;;;;;23.50;16.67;;;;;;;10.91;67.72;95584.06;5128978;28;20639;-47
2022/12/29 06:44:58;;;;;;;22.03;16.70;;;;;;;11.01;67.82;95584.16;5129456;28;20184;-45
2022/12/29 06:47:25;;;;;;;30.27;16.60;;;;;;;11.03;67.49;95572.88;5129451;28;20218;-47
2022/12/29 06:49:52;;;;;;;21.07;16.47;;;;;;;11.14;67.61;95582.31;5128488;28;20236;-47
2022/12/29 06:52:19;;;;;;;22.23;16.67;;;;;;;11.17;67.60;95578.69;5130581;27;20191;-45
2022/12/29 06:54:45;;;;;;;26.00;16.80;;;;;;;11.26;67.46;95578.75;5133942;27;20188;-48
2022/12/29 06:57:14;;;;;;;21.83;16.30;;;;;;;11.31;67.09;95583.53;5132715;27;20210;-46
2022/12/29 06:59:40;;;;;;;24.07;16.77;;;;;;;11.48;66.98;95574.53;5133441;27;20640;-45
2022/12/29 07:02:07;;;;;;;25.47;14.83;;;;;;;11.76;66.61;95578.28;5130763;27;20656;-48
2022/12/29 07:04:34;;;;;;;23.50;16.60;;;;;;;12.10;66.26;95588.41;5130710;27;20192;-47
2022/12/29 07:07:01;;;;;;;22.43;16.20;;;;;;;12.42;65.91;95586.56;5131254;27;20287;-46
2022/12/29 07:09:27;;;;;;;14.37;10.30;;;;;;;13.05;90.32;95584.66;5130430;27;20234;-45
2022/12/29 07:11:54;;;;;;;17.83;11.27;;;;;;;13.91;92.10;95582.38;5130671;27;20566;-47
2022/12/29 07:14:22;;;;;;;15.83;11.60;;;;;;;14.52;87.86;95583.81;5130514;27;20691;-46
2022/12/29 07:16:49;;;;;;;16.87;10.63;;;;;;;14.96;84.02;95594.34;5131443;27;20204;-47
2022/12/29 07:19:16;;;;;;;13.20;10.87;;;;;;;15.32;81.18;95585.75;5130280;27;20245;-46
2022/12/29 07:21:42;;;;;;;17.40;11.00;;;;;;;15.71;78.58;95582.13;5130371;27;20212;-51
2022/12/29 07:24:10;;;;;;;15.83;11.83;;;;;;;16.07;76.46;95584.72;5130360;27;20195;-49
2022/12/29 07:26:37;;;;;;;18.40;12.50;;;;;;;16.46;74.40;95588.53;5130191;27;20211;-46
2022/12/29 07:29:04;;;;;;;16.57;11.73;;;;;;;16.82;72.71;95591.03;5130449;27;20715;-47
2022/12/29 07:31:32;;;;;;;18.90;11.67;;;;;;;17.15;71.05;95597.16;5135238;27;20176;-47
2022/12/29 07:33:59;;;;;;;16.83;11.83;;;;;;;17.46;69.66;95589.66;5130811;27;20195;-47
2022/12/29 07:36:26;;;;;;;17.67;10.33;;;;;;;17.77;68.43;95582.13;5137762;27;20191;-48
2022/12/29 07:38:52;;;;;;;14.97;11.43;;;;;;;18.06;67.00;95588.63;5138598;27;20345;-48
2022/12/29 07:41:19;;;;;;;19.30;12.37;;;;;;;18.33;65.92;95589.28;5138789;27;20208;-47
2022/12/29 07:43:48;;;;;;;13.17;11.10;;;;;;;18.60;64.88;95586.31;5142438;27;20179;-48
2022/12/29 07:46:14;;;;;;;18.53;11.83;;;;;;;18.76;64.05;95585.50;5111469;27;20193;-46
2022/12/29 07:48:42;;;;;;;15.60;12.90;;;;;;;18.83;63.28;95591.66;5130042;27;20632;-45
2022/12/29 07:51:09;;;;;;;14.33;11.47;;;;;;;18.82;63.08;95591.78;5132185;27;20184;-46
2022/12/29 07:53:36;;;;;;;16.53;11.80;;;;;;;18.81;62.64;95593.59;5131787;27;20192;-45
2022/12/29 07:56:03;;;;;;;16.97;12.67;;;;;;;18.77;62.32;95593.09;5132101;27;20188;-47
2022/12/29 07:58:30;;;;;;;16.90;12.60;;;;;;;18.72;61.98;95597.97;5131751;27;20644;-47
2022/12/29 08:00:57;;;;;;;15.40;11.87;;;;;;;18.69;61.56;95597.47;5131900;27;20702;-46
2022/12/29 08:03:25;;;;;;;17.20;12.70;;;;;;;18.63;61.26;95600.72;5131797;27;20184;-47
2022/12/29 08:05:53;;;;;;;22.90;12.27;;;;;;;18.61;60.29;95581.94;5131914;27;20675;-48
2022/12/29 08:08:21;;;;;;;17.80;12.67;;;;;;;18.98;59.56;95613.28;5132280;27;20185;-47
2022/12/29 08:10:48;;;;;;;16.70;12.50;;;;;;;19.21;58.46;95612.56;5132135;27;20180;-49
2022/12/29 08:13:15;;;;;;;17.80;11.90;;;;;;;19.15;58.13;95608.06;5134331;27;20277;-51
2022/12/29 08:15:42;;;;;;;16.77;13.17;;;;;;;19.04;57.92;95598.84;5134092;27;20184;-48
2022/12/29 08:18:09;;;;;;;14.93;12.63;;;;;;;18.98;57.78;95600.34;5131742;27;20185;-45
2022/12/29 08:20:36;;;;;;;14.70;12.00;;;;;;;18.94;58.03;95603.44;5132311;27;20220;-46
2022/12/29 08:23:04;;;;;;;18.43;12.70;;;;;;;18.91;57.81;95607.19;5131890;27;20185;-49
2022/12/29 08:25:30;;;;;;;18.60;13.93;;;;;;;18.90;57.81;95599.56;5131817;27;20188;-49
2022/12/29 08:27:57;;;;;;;16.70;12.50;;;;;;;18.92;57.46;95608.00;5131783;27;20211;-47
2022/12/29 08:30:24;;;;;;;16.53;12.90;;;;;;;18.88;57.20;95601.50;5132108;27;20199;-46
2022/12/29 08:32:51;;;;;;;13.60;12.13;;;;;;;18.95;56.94;95598.06;5148131;27;20184;-48
2022/12/29 08:35:18;;;;;;;19.37;13.83;;;;;;;19.15;56.13;95602.88;5156301;27;20208;-48
2022/12/29 08:37:44;;;;;;;17.07;13.07;;;;;;;19.50;55.41;95598.97;5155460;27;20191;-47
2022/12/29 08:40:13;;;;;;;16.67;13.30;;;;;;;19.84;54.22;95603.03;5151996;27;20220;-48
2022/12/29 08:42:40;;;;;;;14.97;12.93;;;;;;;19.95;53.66;95593.06;5152102;27;20180;-48
2022/12/29 08:45:09;;;;;;;17.97;13.80;;;;;;;19.82;53.62;95600.63;5152288;27;20180;-47
2022/12/29 08:47:36;;;;;;;16.40;12.40;;;;;;;19.59;53.87;95602.34;5151952;27;20191;-46
2022/12/29 08:50:03;;;;;;;15.67;13.23;;;;;;;19.41;54.11;95608.59;5152107;27;20267;-48
2022/12/29 08:52:30;;;;;;;20.63;13.07;;;;;;;19.26;54.33;95607.72;5152310;27;20659;-48
2022/12/29 08:54:56;;;;;;;14.43;12.77;;;;;;;19.12;54.36;95606.59;5151428;27;20252;-48
2022/12/29 08:57:25;;;;;;;18.30;14.07;;;;;;;19.01;54.60;95599.22;5152017;27;20223;-51
2022/12/29 08:59:52;;;;;;;14.80;12.67;;;;;;;18.91;54.70;95593.38;5152184;27;20183;-47
2022/12/29 09:02:18;;;;;;;16.07;12.63;;;;;;;18.73;54.70;95586.63;5151763;27;20242;-49
2022/12/29 09:04:45;;;;;;;18.97;14.90;;;;;;;18.66;54.68;95590.84;5151857;27;20207;-51
2022/12/29 09:07:12;;;;;;;16.27;13.67;;;;;;;18.53;54.59;95588.78;5151881;27;20192;-48
2022/12/29 09:09:39;;;;;;;16.00;13.00;;;;;;;18.42;54.84;95581.31;5151453;27;20770;-47
2022/12/29 09:12:06;;;;;;;16.90;13.57;;;;;;;18.30;54.82;95582.63;5152139;27;20240;-47
2022/12/29 09:14:34;;;;;;;17.43;13.30;;;;;;;18.20;55.00;95580.22;5150716;27;20796;-47
2022/12/29 09:19:45;;;;;;;18.43;13.70;;;;;;;18.02;55.18;95579.59;5151575;27;20236;-47
2022/12/29 09:22:12;;;;;;;16.60;13.60;;;;;;;17.94;55.09;95572.63;5151815;27;20219;-48
2022/12/29 09:24:39;;;;;;;16.63;13.03;;;;;;;17.84;55.34;95568.56;5151059;27;20206;-47
2022/12/29 09:27:06;;;;;;;16.50;13.67;;;;;;;17.86;55.25;95574.38;5151933;27;20667;-47
2022/12/29 09:29:34;;;;;;;14.07;12.53;;;;;;;17.79;55.28;95569.88;5151595;27;20222;-50
2022/12/29 09:32:01;;;;;;;15.53;12.70;;;;;;;17.76;55.09;95564.19;5142387;27;20215;-49
2022/12/29 09:34:28;;;;;;;14.03;12.57;;;;;;;17.73;55.19;95567.06;5130615;27;20646;-50
2022/12/29 09:36:55;;;;;;;15.00;13.13;;;;;;;17.67;55.06;95563.34;5130784;27;20587;-47
2022/12/29 09:39:22;;;;;;;15.13;12.57;;;;;;;17.66;55.11;95559.16;5129744;27;20707;-46
2022/12/29 09:41:59;;;;;;;14.43;12.93;;;;;;;17.65;55.12;95556.72;5130296;27;20209;-48
2022/12/29 09:44:40;;;;;;;15.03;12.87;;;;;;;17.60;54.99;95544.25;5130441;27;20486;-47
2022/12/29 09:47:12;;;;;;;14.03;12.10;;;;;;;17.64;54.83;95550.72;5129987;27;20180;-46
2022/12/29 09:49:45;;;;;;;16.90;11.70;;;;;;;17.65;55.05;95551.53;5130131;27;20287;-46
2022/12/29 09:52:15;;;;;;;15.47;12.43;;;;;;;17.51;55.01;95529.69;5130864;27;20184;-49
2022/12/29 09:54:50;;;;;;;15.70;12.13;;;;;;;17.51;55.11;95534.88;5129950;27;20323;-49
2022/12/29 09:57:21;;;;;;;16.57;12.37;;;;;;;17.52;55.13;95536.47;5130075;27;20283;-47
2022/12/29 09:59:53;;;;;;;13.87;12.10;;;;;;;17.52;55.14;95536.47;5130417;27;20264;-50
2022/12/29 10:02:36;;;;;;;16.43;12.63;;;;;;;17.36;55.18;95529.53;5130340;27;20252;-47
2022/12/29 10:05:04;;;;;;;16.40;12.80;;;;;;;17.29;55.38;95533.69;5130478;27;20200;-48
2022/12/29 10:07:41;;;;;;;13.97;12.07;;;;;;;17.21;55.47;95528.50;5130719;27;20567;-47
2022/12/29 10:10:22;;;;;;;16.00;13.23;;;;;;;17.14;55.49;95524.91;5130199;27;20211;-45
2022/12/29 10:12:59;;;;;;;15.70;12.13;;;;;;;17.12;55.44;95519.13;5130253;27;20188;-46
2022/12/29 10:15:56;;;;;;;14.20;12.43;;;;;;;17.08;55.67;95522.97;5130721;27;20199;-48
2022/12/29 10:18:49;;;;;;;15.80;12.40;;;;;;;17.13;55.48;95518.13;5129876;27;20181;-48
2022/12/29 10:21:28;;;;;;;15.83;12.40;;;;;;;16.98;55.47;95480.00;5130318;27;20295;-52
2022/12/29 10:23:57;;;;;;;16.30;13.37;;;;;;;17.30;55.12;95509.47;5130589;27;20191;-48
2022/12/29 10:26:28;;;;;;;16.07;12.67;;;;;;;17.37;55.03;95509.63;5130013;27;20188;-49
2022/12/29 10:28:58;;;;;;;15.57;12.40;;;;;;;17.37;54.88;95504.47;5129992;27;20180;-49
2022/12/29 10:31:45;;;;;;;16.13;12.53;;;;;;;17.41;54.89;95501.41;5133217;27;20188;-51
2022/12/29 10:34:19;;;;;;;14.57;12.10;;;;;;;17.46;54.90;95499.13;5150974;27;20175;-48
2022/12/29 10:36:49;;;;;;;15.63;12.80;;;;;;;17.50;54.80;95503.03;5149943;27;20194;-49
2022/12/29 10:39:24;;;;;;;14.53;12.33;;;;;;;17.46;54.95;95501.72;5149579;27;20249;-50
2022/12/29 10:41:56;;;;;;;20.13;13.53;;;;;;;17.42;54.99;95489.28;5150644;27;20425;-49
2022/12/29 10:44:28;;;;;;;14.93;11.83;;;;;;;17.42;54.95;95491.88;5150440;27;20179;-49
2022/12/29 10:47:01;;;;;;;14.07;12.60;;;;;;;17.41;54.85;95490.25;5149752;27;20243;-47
2022/12/29 10:49:29;;;;;;;13.97;12.27;;;;;;;17.39;54.81;95480.06;5150245;27;20198;-47
2022/12/29 10:51:59;;;;;;;15.13;11.83;;;;;;;17.44;54.75;95485.56;5149395;27;20707;-50
2022/12/29 10:54:32;;;;;;;17.70;13.07;;;;;;;17.39;54.68;95477.47;5149465;27;20654;-50
2022/12/29 10:57:02;;;;;;;14.50;13.00;;;;;;;17.42;54.74;95476.34;5150475;27;20191;-49
2022/12/29 10:59:31;;;;;;;14.23;12.43;;;;;;;17.39;54.75;95481.84;5150177;27;20184;-48
2022/12/29 11:02:13;;;;;;;17.90;13.43;;;;;;;17.36;54.77;95471.81;5149285;27;20219;-49
2022/12/29 11:04:53;;;;;;;15.00;12.00;;;;;;;17.40;54.74;95473.09;5150084;27;20669;-49
2022/12/29 11:07:21;;;;;;;15.83;11.87;;;;;;;17.36;54.77;95462.28;5150199;27;20186;-48
2022/12/29 11:09:48;;;;;;;16.47;12.60;;;;;;;17.34;54.76;95460.81;5150043;27;20279;-47
2022/12/29 11:12:24;;;;;;;15.93;12.07;;;;;;;17.30;54.76;95455.97;5149308;27;20192;-47
2022/12/29 11:15:15;;;;;;;16.50;13.20;;;;;;;17.27;54.82;95456.31;5128596;28;20196;-49
2022/12/29 11:17:48;;;;;;;14.57;12.17;;;;;;;17.22;55.02;95452.56;5128728;28;20571;-50
2022/12/29 11:20:29;;;;;;;17.47;13.57;;;;;;;17.14;55.04;95445.63;5131010;28;20193;-49
2022/12/29 11:22:56;;;;;;;17.90;13.13;;;;;;;17.14;54.93;95452.56;5129106;28;20631;-50
2022/12/29 11:25:23;;;;;;;15.37;13.33;;;;;;;17.10;55.05;95457.25;5128989;28;20185;-49
2022/12/29 11:27:57;;;;;;;16.23;13.13;;;;;;;17.06;55.03;95443.03;5129285;28;20245;-48
2022/12/29 11:30:25;;;;;;;18.90;12.90;;;;;;;17.04;55.30;95444.94;5128463;28;20795;-46
2022/12/29 11:32:54;;;;;;;21.83;13.43;;;;;;;17.03;55.06;95448.50;5128860;28;20574;-47
2022/12/29 11:35:31;;;;;;;15.10;12.93;;;;;;;17.02;55.03;95446.91;5128981;28;20184;-47
2022/12/29 11:37:59;;;;;;;14.50;12.27;;;;;;;17.02;54.94;95442.53;5129325;27;20181;-47
2022/12/29 11:40:26;;;;;;;17.17;12.53;;;;;;;17.04;55.00;95443.16;5132367;27;20240;-48
2022/12/29 11:42:56;;;;;;;17.00;13.37;;;;;;;17.06;54.96;95435.28;5132498;27;20212;-47
2022/12/29 11:45:25;;;;;;;18.93;13.63;;;;;;;17.05;54.75;95433.63;5132428;27;20184;-50
2022/12/29 11:47:55;;;;;;;17.77;12.63;;;;;;;16.63;54.62;95372.50;5132732;27;20257;-48
2022/12/29 11:50:25;;;;;;;17.63;13.00;;;;;;;16.79;54.70;95400.16;5133600;27;20181;-47
2022/12/29 11:53:00;;;;;;;16.73;13.10;;;;;;;16.85;54.98;95412.47;5133011;27;20191;-47
2022/12/29 11:55:28;;;;;;;16.60;13.60;;;;;;;16.80;55.02;95412.94;5132308;27;20251;-47
2022/12/29 11:57:58;;;;;;;15.50;12.10;;;;;;;16.83;55.17;95435.03;5132423;27;20640;-47
2022/12/29 12:00:26;;;;;;;17.23;13.27;;;;;;;16.76;55.24;95442.63;5131792;27;20188;-47
2022/12/29 12:02:59;;;;;;;16.43;12.13;;;;;;;16.72;55.42;95431.00;5132034;27;20243;-48
2022/12/29 12:05:37;;;;;;;14.77;12.13;;;;;;;16.66;55.55;95426.41;5131968;27;20707;-48
2022/12/29 12:08:12;;;;;;;15.70;12.80;;;;;;;16.68;55.52;95428.84;5131870;27;20530;-48
2022/12/29 12:10:45;;;;;;;16.23;13.10;;;;;;;16.70;55.54;95425.13;5131878;27;20188;-48